KSGU/SGU METAR and TAF weather

Enter ICAO airport designator
Station Type Date Time Source
KSGU METAR 2024/04/15 08:56 UTC NOAA

KSGU 150856Z AUTO 22003KT 10SM BKN120 13/M02 A2987 RMK AO2 SLP094 T01281022 58002


Station Type Date Time Source
KSGU Decoded METAR 2024/04/15 08:56 UTC NOAA

St George, St George Municipal Airport, UT, United States (KSGU) 37-05N 113-36W
Apr 15, 2024 - 04:56 AM EDT / 2024.04.15 0856 UTC
Wind: from the SW (220 degrees) at 3 MPH (3 KT):0
Visibility: 10 mile(s):0
Sky conditions: mostly cloudy
Temperature: 55.0 F (12.8 C)
Dew Point: 28.0 F (-2.2 C)
Relative Humidity: 35%
Pressure (altimeter): 29.87 in. Hg (1011 hPa)
Pressure tendency: 0.01 inches (0.2 hPa) lower than three hours ago
ob: KSGU 150856Z AUTO 22003KT 10SM BKN120 13/M02 A2987 RMK AO2 SLP094 T01281022 58002
cycle: 9

Station Type Date Time Source
KSGU TAF 2024/04/15 07:40 UTC NOAA